Time;durP1;ratioP1;P1;durP2;ratioP2;P2;SDS_P1;SDS_P2;PMS_P1;PMS_P2;Temp;Humidity;BMP_temperature;BMP_pressure;BME280_temperature;BME280_humidity;BME280_pressure;Samples;Min_cycle;Max_cycle;Signal;HPM_P1;HPM_P2
2022/03/05 00:02:20;;;;;;;15.55;7.10;;;;;;;-1.66;100.00;99273.84;4356479;32;20434;-78
2022/03/05 00:04:48;;;;;;;19.65;7.47;;;;;;;-1.45;100.00;99301.59;4368523;32;20051;-77
2022/03/05 00:07:16;;;;;;;17.77;7.93;;;;;;;-1.30;100.00;99330.81;4369189;32;20055;-78
2022/03/05 00:09:44;;;;;;;17.37;7.55;;;;;;;-1.48;100.00;99318.59;4366382;32;20042;-77
2022/03/05 00:12:11;;;;;;;19.08;6.50;;;;;;;-1.44;100.00;99334.91;4368523;32;20818;-76
2022/03/05 00:14:38;;;;;;;23.50;7.97;;;;;;;-1.42;100.00;99332.09;4368403;32;20065;-77
2022/03/05 00:17:05;;;;;;;18.05;7.50;;;;;;;-1.86;100.00;99268.06;4349789;32;20380;-77
2022/03/05 00:19:32;;;;;;;21.20;8.05;;;;;;;-1.45;100.00;99333.28;4354758;32;20057;-78
2022/03/05 00:22:01;;;;;;;18.42;8.48;;;;;;;-1.49;100.00;99332.75;4366606;32;20192;-77
2022/03/05 00:24:28;;;;;;;17.83;8.30;;;;;;;-1.89;100.00;99278.94;4368527;32;20064;-76
2022/03/05 00:26:55;;;;;;;17.42;7.50;;;;;;;-1.71;100.00;99310.50;4368164;32;20086;-76
2022/03/05 00:29:21;;;;;;;15.75;7.62;;;;;;;-1.54;100.00;99334.25;4369200;32;20051;-76
2022/03/05 00:31:48;;;;;;;18.50;8.15;;;;;;;-1.55;100.00;99333.41;4355555;32;20031;-76
2022/03/05 00:34:15;;;;;;;24.08;8.25;;;;;;;-1.91;100.00;99273.00;4352491;32;20095;-76
2022/03/05 00:36:42;;;;;;;18.60;7.50;;;;;;;-1.84;100.00;99284.53;4367283;32;20112;-77
2022/03/05 00:39:08;;;;;;;16.92;8.90;;;;;;;-1.52;100.00;99341.00;4353124;32;20039;-77
2022/03/05 00:41:35;;;;;;;21.67;8.68;;;;;;;-2.15;100.00;99241.28;4369442;32;20154;-77
2022/03/05 00:44:01;;;;;;;22.25;8.75;;;;;;;-1.62;100.00;99327.16;4356590;32;20380;-76
2022/03/05 00:46:29;;;;;;;21.80;8.48;;;;;;;-1.89;100.00;99293.97;4355506;32;20435;-77
2022/03/05 00:48:56;;;;;;;23.73;9.00;;;;;;;-1.96;100.00;99288.50;4357653;32;20430;-76
2022/03/05 00:51:22;;;;;;;17.27;8.10;;;;;;;-1.97;100.00;99281.56;4369989;32;20040;-77
2022/03/05 00:53:49;;;;;;;20.98;8.07;;;;;;;-1.96;100.00;99279.75;4356273;32;20057;-77
2022/03/05 00:56:16;;;;;;;17.98;7.70;;;;;;;-1.71;100.00;99322.84;4369842;32;20392;-76
2022/03/05 00:58:43;;;;;;;18.55;8.50;;;;;;;-1.86;100.00;99301.56;4367290;32;20392;-76
2022/03/05 01:01:09;;;;;;;15.95;7.90;;;;;;;-2.04;100.00;99283.22;4353638;32;20083;-77
2022/03/05 01:03:36;;;;;;;18.05;7.50;;;;;;;-1.67;100.00;99345.31;4368961;32;20047;-77
2022/03/05 01:06:05;;;;;;;25.10;7.22;;;;;;;-1.69;100.00;99334.06;4355374;32;20047;-77
2022/03/05 01:08:33;;;;;;;12.93;7.28;;;;;;;-1.63;100.00;99336.06;4368397;32;20060;-77
2022/03/05 01:11:00;;;;;;;15.90;7.85;;;;;;;-1.75;100.00;99329.47;4367181;32;20071;-76
2022/03/05 01:13:27;;;;;;;18.25;8.38;;;;;;;-1.71;100.00;99328.97;4368370;32;20094;-77
2022/03/05 01:15:54;;;;;;;23.38;7.50;;;;;;;-1.88;100.00;99304.34;4370755;32;20065;-77
2022/03/05 01:18:20;;;;;;;18.83;7.80;;;;;;;-1.69;100.00;99336.69;4372993;32;20104;-77
2022/03/05 01:20:47;;;;;;;21.33;8.05;;;;;;;-1.67;100.00;99325.00;4372379;32;20061;-77
2022/03/05 01:23:13;;;;;;;20.75;7.40;;;;;;;-1.95;100.00;99269.03;4369671;32;20075;-77
2022/03/05 01:25:40;;;;;;;33.15;11.07;;;;;;;-1.67;100.00;99314.44;4369824;32;20094;-78
2022/03/05 01:28:06;;;;;;;27.15;9.88;;;;;;;-1.58;100.00;99323.22;4372290;32;20047;-75
2022/03/05 01:30:34;;;;;;;36.28;9.90;;;;;;;-1.95;100.00;99258.47;4356263;32;20036;-77
2022/03/05 01:33:01;;;;;;;21.17;8.93;;;;;;;-1.98;100.00;99248.25;4372106;32;20091;-77
2022/03/05 01:35:28;;;;;;;16.75;7.25;;;;;;;-1.62;100.00;99306.03;4356456;32;20032;-77
2022/03/05 01:38:00;;;;;;;17.45;7.70;;;;;;;-1.77;100.00;99281.25;4372124;32;20136;-76
2022/03/05 01:40:27;;;;;;;22.33;7.25;;;;;;;-1.96;100.00;99254.19;4371091;32;20073;-78
2022/03/05 01:42:54;;;;;;;19.55;7.80;;;;;;;-1.80;100.00;99260.47;4371840;32;20047;-77
2022/03/05 01:45:20;;;;;;;19.25;7.45;;;;;;;-1.59;100.00;99308.34;4368810;32;20202;-77
2022/03/05 01:47:47;;;;;;;24.65;8.18;;;;;;;-1.58;100.00;99315.28;4370922;32;20065;-77
2022/03/05 01:50:14;;;;;;;18.90;6.97;;;;;;;-1.53;100.00;99326.19;4356131;32;20048;-77
2022/03/05 01:52:47;;;;;;;18.45;7.62;;;;;;;-1.52;100.00;99325.16;4357117;32;20057;-77
2022/03/05 01:55:14;;;;;;;26.40;8.65;;;;;;;-1.51;100.00;99318.91;4356165;32;20039;-77
2022/03/05 01:57:41;;;;;;;21.33;7.68;;;;;;;-1.53;100.00;99312.97;4355760;32;20111;-78
2022/03/05 02:00:10;;;;;;;17.37;8.32;;;;;;;-1.47;100.00;99320.25;4367884;32;20471;-79
2022/03/05 02:02:38;;;;;;;25.98;9.27;;;;;;;-1.53;100.00;99320.03;4370573;32;20321;-78
2022/03/05 02:05:06;;;;;;;14.70;7.97;;;;;;;-1.54;100.00;99318.41;4355057;32;20101;-77
2022/03/05 02:07:33;;;;;;;16.52;7.22;;;;;;;-1.83;100.00;99266.91;4354728;32;20459;-76
2022/03/05 02:09:59;;;;;;;15.02;7.68;;;;;;;-1.66;100.00;99304.69;4370121;32;20188;-77
2022/03/05 02:12:30;;;;;;;22.75;8.80;;;;;;;-1.97;100.00;99255.19;4357041;32;20065;-77
2022/03/05 02:14:58;;;;;;;19.93;7.53;;;;;;;-1.58;100.00;99317.94;4370438;32;20459;-78
2022/03/05 02:17:27;;;;;;;21.27;7.82;;;;;;;-1.60;100.00;99316.44;4370436;32;20051;-77
2022/03/05 02:19:54;;;;;;;20.20;8.50;;;;;;;-1.62;100.00;99313.94;4356046;32;20047;-78
2022/03/05 02:22:21;;;;;;;23.10;7.30;;;;;;;-2.05;100.00;99252.53;4366963;32;20101;-78
2022/03/05 02:24:55;;;;;;;16.70;7.60;;;;;;;-1.62;100.00;99319.22;4370567;32;20055;-77
2022/03/05 02:27:25;;;;;;;20.73;9.18;;;;;;;-1.95;100.00;99274.31;4369974;32;20039;-76
2022/03/05 02:29:55;;;;;;;19.85;6.93;;;;;;;-1.97;100.00;99276.28;4355395;32;20047;-77
2022/03/05 02:32:23;;;;;;;17.60;8.57;;;;;;;-1.69;100.00;99320.84;4358221;32;20035;-77
2022/03/05 02:34:50;;;;;;;18.23;6.82;;;;;;;-1.67;100.00;99324.19;4358124;32;20150;-77
2022/03/05 02:37:18;;;;;;;25.12;7.87;;;;;;;-1.69;100.00;99323.50;4370417;32;20057;-76
2022/03/05 02:39:47;;;;;;;20.23;7.87;;;;;;;-1.66;100.00;99331.09;4343213;32;20320;-77
2022/03/05 02:42:15;;;;;;;23.35;7.47;;;;;;;-1.64;100.00;99329.16;4370198;32;20043;-78
2022/03/05 02:44:47;;;;;;;27.52;7.78;;;;;;;-1.70;100.00;99327.16;4356193;32;20063;-78
2022/03/05 02:47:14;;;;;;;21.12;9.02;;;;;;;-1.66;100.00;99331.09;4371186;32;20065;-77
2022/03/05 02:49:41;;;;;;;17.80;9.02;;;;;;;-2.04;100.00;99270.03;4354802;32;20024;-78
2022/03/05 02:52:08;;;;;;;17.85;8.45;;;;;;;-1.66;100.00;99328.47;4370953;32;20137;-79
2022/03/05 02:54:34;;;;;;;14.13;6.97;;;;;;;-1.65;100.00;99324.84;4371182;32;20404;-79
2022/03/05 02:57:01;;;;;;;22.90;9.15;;;;;;;-1.67;100.00;99324.19;4369606;32;20350;-77
2022/03/05 02:59:27;;;;;;;16.35;8.00;;;;;;;-1.96;100.00;99283.22;4371456;32;20040;-77
2022/03/05 03:01:54;;;;;;;17.48;7.90;;;;;;;-1.98;100.00;99269.34;4368109;32;20043;-78
2022/03/05 03:04:21;;;;;;;19.27;8.68;;;;;;;-1.71;100.00;99317.56;4369902;32;20593;-78
2022/03/05 03:06:47;;;;;;;20.65;7.90;;;;;;;-1.78;100.00;99290.19;4370938;32;20032;-77
2022/03/05 03:09:14;;;;;;;22.40;7.65;;;;;;;-1.81;100.00;99286.03;4369460;32;20036;-77
2022/03/05 03:11:41;;;;;;;19.05;6.50;;;;;;;-1.58;100.00;99332.94;4368060;32;20175;-76
2022/03/05 03:14:08;;;;;;;19.35;7.87;;;;;;;-1.70;100.00;99324.50;4368673;32;20145;-78
2022/03/05 03:16:34;;;;;;;22.60;7.28;;;;;;;-1.67;100.00;99324.19;4370665;32;20372;-79
2022/03/05 03:19:01;;;;;;;16.70;7.20;;;;;;;-1.59;100.00;99337.37;4371184;32;20040;-77
2022/03/05 03:21:27;;;;;;;23.40;7.78;;;;;;;-1.73;100.00;99319.56;4370486;32;20114;-77
2022/03/05 03:23:54;;;;;;;19.62;8.40;;;;;;;-1.97;100.00;99297.41;4354253;32;20035;-78
2022/03/05 03:26:21;;;;;;;18.52;6.93;;;;;;;-1.65;100.00;99330.13;4357458;32;20327;-77
2022/03/05 03:28:47;;;;;;;18.27;8.27;;;;;;;-1.61;100.00;99339.38;4370717;32;20057;-77
2022/03/05 03:31:14;;;;;;;11.80;6.30;;;;;;;-1.52;100.00;99338.37;4369161;32;20174;-77
2022/03/05 03:33:41;;;;;;;12.55;6.00;;;;;;;-1.61;100.00;99349.09;4371307;32;20067;-77
2022/03/05 03:36:07;;;;;;;17.23;7.03;;;;;;;-1.66;100.00;99341.66;4363556;32;20339;-77
2022/03/05 03:38:40;;;;;;;13.93;5.75;;;;;;;-1.73;100.00;99330.13;4353682;32;20404;-78
2022/03/05 03:41:07;;;;;;;18.30;6.12;;;;;;;-1.74;100.00;99329.28;4369261;32;20027;-79
2022/03/05 03:43:34;;;;;;;11.15;5.80;;;;;;;-2.05;100.00;99290.28;4370928;32;20039;-76
2022/03/05 03:46:01;;;;;;;12.07;5.68;;;;;;;-1.76;100.00;99335.72;4368676;32;20043;-77
2022/03/05 03:48:28;;;;;;;11.20;6.45;;;;;;;-1.81;100.00;99338.03;4356468;32;20035;-77
2022/03/05 03:50:55;;;;;;;15.38;5.45;;;;;;;-1.71;100.00;99343.97;4355022;32;20069;-77
2022/03/05 03:53:21;;;;;;;11.85;5.00;;;;;;;-2.07;100.00;99296.75;4370579;32;20043;-78
2022/03/05 03:55:48;;;;;;;14.95;5.37;;;;;;;-1.82;100.00;99334.53;4370466;32;20040;-78
2022/03/05 03:58:14;;;;;;;13.32;5.25;;;;;;;-2.04;100.00;99301.69;4369557;32;20103;-77
2022/03/05 04:00:41;;;;;;;14.02;5.47;;;;;;;-1.76;100.00;99347.09;4353862;32;20043;-77
2022/03/05 04:03:08;;;;;;;13.02;5.18;;;;;;;-1.81;100.00;99338.03;4369153;32;20051;-79
2022/03/05 04:05:34;;;;;;;9.88;4.70;;;;;;;-2.05;100.00;99306.13;4370076;32;20381;-78
2022/03/05 04:10:46;;;;;;;15.48;5.40;;;;;;;-1.69;100.00;99357.81;4366681;32;20035;-78
2022/03/05 04:13:12;;;;;;;9.55;4.65;;;;;;;-1.67;100.00;99350.59;4370302;32;20051;-78
2022/03/05 04:15:39;;;;;;;11.20;4.80;;;;;;;-2.04;100.00;99291.13;4369797;32;20410;-78
2022/03/05 04:18:06;;;;;;;10.10;4.82;;;;;;;-1.98;100.00;99306.28;4370430;32;20065;-77
2022/03/05 04:20:33;;;;;;;8.60;4.37;;;;;;;-1.69;100.00;99352.53;4356269;32;20066;-76
2022/03/05 04:23:00;;;;;;;10.48;4.35;;;;;;;-1.74;100.00;99349.56;4354358;32;20075;-76
2022/03/05 04:25:27;;;;;;;8.68;4.22;;;;;;;-1.75;100.00;99358.50;4369517;32;20047;-78
2022/03/05 04:27:53;;;;;;;11.25;3.97;;;;;;;-1.69;100.00;99360.47;4369963;32;20057;-78
2022/03/05 04:30:20;;;;;;;8.20;3.95;;;;;;;-1.77;100.00;99356.03;4356192;32;20074;-77
2022/03/05 04:32:47;;;;;;;11.40;4.65;;;;;;;-1.85;100.00;99351.53;4357383;32;20053;-77
2022/03/05 04:35:13;;;;;;;11.52;4.55;;;;;;;-1.75;100.00;99361.13;4368024;32;20077;-77
2022/03/05 04:37:40;;;;;;;8.23;3.58;;;;;;;-1.74;100.00;99365.41;4369800;32;20062;-77
2022/03/05 04:40:07;;;;;;;10.43;5.00;;;;;;;-1.98;100.00;99313.41;4356733;32;20035;-77
2022/03/05 04:42:34;;;;;;;10.25;4.12;;;;;;;-1.71;100.00;99368.56;4370212;32;20024;-77
2022/03/05 04:45:02;;;;;;;8.38;4.00;;;;;;;-1.99;100.00;99322.28;4367944;32;20071;-77
2022/03/05 04:47:29;;;;;;;7.50;3.45;;;;;;;-1.91;100.00;99344.28;4367729;32;20028;-76
2022/03/05 04:49:55;;;;;;;10.88;3.85;;;;;;;-1.81;100.00;99375.78;4367934;32;20797;-76
2022/03/05 04:52:22;;;;;;;6.65;3.35;;;;;;;-2.12;100.00;99331.53;4373313;32;20057;-76
2022/03/05 04:54:49;;;;;;;8.10;3.30;;;;;;;-1.79;100.00;99383.56;4372474;32;20398;-76
2022/03/05 04:57:15;;;;;;;9.35;3.97;;;;;;;-2.11;100.00;99330.50;4357896;32;20053;-76
2022/03/05 04:59:42;;;;;;;7.10;3.70;;;;;;;-1.88;100.00;99380.91;4372752;32;20395;-77
2022/03/05 05:02:08;;;;;;;9.38;3.75;;;;;;;-2.04;100.00;99354.47;4371261;32;20061;-78
2022/03/05 05:04:35;;;;;;;9.65;3.30;;;;;;;-2.18;100.00;99324.25;4371451;32;20100;-79
2022/03/05 05:07:02;;;;;;;9.48;3.25;;;;;;;-1.80;100.00;99381.91;4372743;32;20151;-78
2022/03/05 05:09:30;;;;;;;8.38;3.33;;;;;;;-1.84;100.00;99371.66;4369453;32;20035;-77
2022/03/05 05:11:57;;;;;;;7.72;3.17;;;;;;;-1.92;100.00;99358.44;4373419;32;20069;-79
2022/03/05 05:14:23;;;;;;;8.82;3.17;;;;;;;-2.14;100.00;99332.66;4372914;32;20027;-78
2022/03/05 05:16:50;;;;;;;4.75;2.50;;;;;;;-2.18;100.00;99331.34;4371659;32;20488;-79
2022/03/05 05:19:29;;;;;;;4.95;2.47;;;;;;;-1.92;100.00;99374.28;4371691;32;20061;-78
2022/03/05 05:21:58;;;;;;;4.78;2.60;;;;;;;-1.91;100.00;99381.22;4374898;32;20061;-78
2022/03/05 05:24:26;;;;;;;3.22;2.33;;;;;;;-2.22;100.00;99336.94;4373118;32;20035;-79
2022/03/05 05:26:53;;;;;;;4.90;2.72;;;;;;;-2.17;100.00;99335.59;4370720;32;20031;-76
2022/03/05 05:29:21;;;;;;;4.25;2.78;;;;;;;-1.91;100.00;99381.22;4357168;32;20164;-76
2022/03/05 05:31:47;;;;;;;8.35;3.40;;;;;;;-2.05;100.00;99352.81;4371427;32;20388;-76
2022/03/05 05:34:14;;;;;;;5.60;2.58;;;;;;;-1.93;100.00;99385.84;4357785;32;20075;-78
2022/03/05 05:36:41;;;;;;;5.30;2.28;;;;;;;-1.93;100.00;99385.00;4371949;32;20378;-78
2022/03/05 05:39:09;;;;;;;4.95;2.00;;;;;;;-1.93;100.00;99388.47;4372584;32;20061;-78
2022/03/05 05:41:36;;;;;;;7.07;2.20;;;;;;;-1.92;100.00;99395.41;4371445;32;20061;-76
2022/03/05 05:44:06;;;;;;;4.25;2.67;;;;;;;-1.90;100.00;99404.00;4371189;32;20061;-76
2022/03/05 05:46:33;;;;;;;1.67;1.45;;;;;;;-2.25;100.00;99353.06;4372130;32;20075;-75
2022/03/05 05:48:59;;;;;;;3.08;1.85;;;;;;;-1.91;100.00;99407.63;4371960;32;20027;-76
2022/03/05 05:51:28;;;;;;;3.70;1.83;;;;;;;-2.25;100.00;99358.34;4371197;32;20056;-76
2022/03/05 05:53:56;;;;;;;3.40;1.87;;;;;;;-2.26;100.00;99354.06;4354682;32;20163;-77
2022/03/05 05:56:24;;;;;;;4.90;2.70;;;;;;;-2.21;100.00;99364.94;4371771;32;20056;-76
2022/03/05 05:58:51;;;;;;;7.00;2.33;;;;;;;-1.89;100.00;99418.81;4371714;32;20491;-77
2022/03/05 06:01:17;;;;;;;3.60;2.15;;;;;;;-2.23;100.00;99361.66;4358363;32;20068;-77
2022/03/05 06:03:45;;;;;;;9.60;2.03;;;;;;;-1.87;100.00;99419.53;4371212;32;20058;-76
2022/03/05 06:06:12;;;;;;;4.62;2.42;;;;;;;-1.85;100.00;99422.81;4360989;32;20067;-76
2022/03/05 06:08:39;;;;;;;3.90;2.12;;;;;;;-1.80;100.00;99421.50;4359396;32;20044;-77
2022/03/05 06:11:06;;;;;;;5.30;2.35;;;;;;;-1.83;100.00;99418.19;4363690;32;20061;-76
2022/03/05 06:13:32;;;;;;;3.22;2.08;;;;;;;-1.80;100.00;99413.56;4357298;32;20031;-77
2022/03/05 06:15:59;;;;;;;4.47;2.08;;;;;;;-1.77;100.00;99418.53;4355497;32;20036;-76
2022/03/05 06:18:26;;;;;;;3.33;2.35;;;;;;;-1.83;100.00;99428.75;4357690;32;20069;-79
2022/03/05 06:20:52;;;;;;;6.37;2.58;;;;;;;-2.14;100.00;99372.22;4358300;32;20054;-76
2022/03/05 06:23:19;;;;;;;3.42;2.20;;;;;;;-2.26;100.00;99351.41;4358718;32;20028;-76
2022/03/05 06:25:46;;;;;;;3.95;1.60;;;;;;;-1.74;100.00;99432.25;4372005;32;20043;-77
2022/03/05 06:28:12;;;;;;;5.07;2.50;;;;;;;-1.68;100.00;99438.69;4358303;32;20032;-76
2022/03/05 06:30:39;;;;;;;3.37;2.45;;;;;;;-1.70;100.00;99430.13;4362030;32;20028;-77
2022/03/05 06:33:06;;;;;;;3.22;2.25;;;;;;;-1.93;100.00;99392.91;4356942;32;20491;-76
2022/03/05 06:35:32;;;;;;;4.55;2.00;;;;;;;-1.59;100.00;99435.09;4350112;32;20083;-77
2022/03/05 06:37:59;;;;;;;2.53;1.80;;;;;;;-1.90;100.00;99393.44;4371653;32;20060;-76
2022/03/05 06:40:26;;;;;;;8.02;2.58;;;;;;;-1.81;100.00;99407.47;4358084;32;20043;-76
2022/03/05 06:42:52;;;;;;;6.37;2.50;;;;;;;-1.65;100.00;99433.09;4353667;32;20050;-76
2022/03/05 06:45:19;;;;;;;6.60;3.20;;;;;;;-1.55;100.00;99443.53;4356038;32;20075;-76
2022/03/05 06:47:46;;;;;;;5.25;2.60;;;;;;;-1.59;100.00;99453.59;4355660;32;20040;-75
2022/03/05 06:50:12;;;;;;;5.47;2.70;;;;;;;-1.75;100.00;99421.87;4343505;32;20459;-75
2022/03/05 06:52:39;;;;;;;6.65;2.53;;;;;;;-1.58;100.00;99449.97;4355950;32;20054;-77
2022/03/05 06:57:41;;;;;;;11.12;3.72;;;;;;;-1.78;100.00;99407.16;4355632;32;20180;-76
2022/03/05 07:00:10;;;;;;;22.83;6.25;;;;;;;-1.53;100.00;99447.66;4354926;32;20440;-74
2022/03/05 07:02:36;;;;;;;11.88;3.58;;;;;;;-1.55;100.00;99449.63;4354634;32;20028;-74
2022/03/05 07:05:03;;;;;;;12.23;2.90;;;;;;;-1.50;100.00;99455.28;4368107;32;20065;-75
2022/03/05 07:07:30;;;;;;;11.50;3.10;;;;;;;-1.78;100.00;99403.69;4370518;32;20069;-74
2022/03/05 07:09:56;;;;;;;8.07;3.25;;;;;;;-1.42;100.00;99464.19;4356483;32;20081;-74
2022/03/05 07:12:24;;;;;;;9.27;3.17;;;;;;;-1.56;100.00;99442.69;4370351;32;20348;-75
2022/03/05 07:14:51;;;;;;;11.70;2.95;;;;;;;-1.39;100.00;99448.84;4361220;32;20132;-75
2022/03/05 07:17:20;;;;;;;10.82;3.50;;;;;;;-1.59;100.00;99421.09;4365501;32;20069;-74
2022/03/05 07:19:47;;;;;;;5.22;2.37;;;;;;;-1.33;100.00;99464.03;4357321;32;20490;-74
2022/03/05 07:22:13;;;;;;;8.10;3.22;;;;;;;-1.37;100.00;99468.00;4370139;32;20044;-74
2022/03/05 07:24:40;;;;;;;9.40;3.12;;;;;;;-1.27;100.00;99470.50;4370623;32;20036;-75
2022/03/05 07:27:06;;;;;;;5.30;2.92;;;;;;;-1.54;100.00;99424.88;4355881;32;20035;-74
2022/03/05 07:29:33;;;;;;;6.57;2.87;;;;;;;-1.55;100.00;99425.84;4356921;32;20035;-75
2022/03/05 07:31:59;;;;;;;8.48;2.47;;;;;;;-1.25;100.00;99471.16;4366523;32;20035;-75
2022/03/05 07:34:26;;;;;;;4.12;3.10;;;;;;;-1.61;100.00;99413.31;4369472;32;20162;-74
2022/03/05 07:36:52;;;;;;;3.55;2.22;;;;;;;-1.25;100.00;99460.59;4368510;32;20115;-75
2022/03/05 07:39:19;;;;;;;4.65;2.22;;;;;;;-1.18;100.00;99472.19;4357167;32;20042;-74
2022/03/05 07:41:46;;;;;;;3.20;2.50;;;;;;;-1.17;100.00;99465.06;4369697;32;20035;-74
2022/03/05 07:44:18;;;;;;;4.32;2.50;;;;;;;-1.04;100.00;99488.38;4366692;32;20036;-75
2022/03/05 07:46:47;;;;;;;4.65;2.42;;;;;;;-1.15;100.00;99479.78;4364241;32;20145;-75
2022/03/05 07:49:14;;;;;;;5.60;2.83;;;;;;;-1.06;100.00;99495.66;4370348;32;20073;-75
2022/03/05 07:51:40;;;;;;;5.62;3.08;;;;;;;-1.07;100.00;99486.88;4354332;32;20353;-77
2022/03/05 07:54:07;;;;;;;7.45;2.45;;;;;;;-1.04;100.00;99477.81;4355843;32;20379;-75
2022/03/05 07:56:34;;;;;;;4.53;2.50;;;;;;;-0.96;100.00;99497.16;4364974;32;20039;-76
2022/03/05 07:59:00;;;;;;;9.63;3.40;;;;;;;-0.99;100.00;99499.28;4355056;32;20039;-76
2022/03/05 08:01:27;;;;;;;6.47;2.75;;;;;;;-1.38;100.00;99450.50;4355108;32;20092;-75
2022/03/05 08:03:54;;;;;;;5.85;2.92;;;;;;;-1.19;100.00;99477.63;4358049;32;20074;-75
2022/03/05 08:06:20;;;;;;;10.93;3.12;;;;;;;-0.99;100.00;99496.63;4356185;32;20031;-76
2022/03/05 08:08:46;;;;;;;9.38;3.35;;;;;;;-0.99;100.00;99501.91;4343215;32;20060;-75
2022/03/05 08:11:13;;;;;;;5.03;2.47;;;;;;;-1.07;100.00;99486.06;4364895;32;20392;-76
2022/03/05 08:13:40;;;;;;;5.93;3.10;;;;;;;-1.25;100.00;99449.19;4358757;32;20331;-76
2022/03/05 08:16:07;;;;;;;6.43;2.55;;;;;;;-0.89;100.00;99497.31;4357546;32;20061;-74
2022/03/05 08:18:34;;;;;;;10.00;2.97;;;;;;;-0.79;100.00;99505.91;4368951;32;20035;-74
2022/03/05 08:21:02;;;;;;;8.25;2.92;;;;;;;-0.79;100.00;99503.25;4355717;32;20062;-74
2022/03/05 08:23:28;;;;;;;5.10;2.97;;;;;;;-0.79;100.00;99513.84;4353143;32;20040;-74
2022/03/05 08:25:55;;;;;;;10.55;3.40;;;;;;;-0.80;100.00;99496.34;4354902;32;20377;-75
2022/03/05 08:28:22;;;;;;;4.85;2.87;;;;;;;-0.99;100.00;99454.34;4354110;32;20023;-74
2022/03/05 08:30:49;;;;;;;6.05;2.75;;;;;;;-0.61;100.00;99520.78;4365508;32;20072;-74
2022/03/05 08:33:17;;;;;;;5.53;3.33;;;;;;;-0.67;100.00;99502.94;4370357;32;20057;-73
2022/03/05 08:35:44;;;;;;;5.10;2.40;;;;;;;-0.62;100.00;99508.59;4366635;32;20039;-74
2022/03/05 08:38:10;;;;;;;5.90;2.95;;;;;;;-0.71;100.00;99498.97;4366995;32;20298;-75
2022/03/05 08:40:37;;;;;;;6.57;2.85;;;;;;;-0.63;100.00;99506.91;4368453;32;20433;-75
2022/03/05 08:43:03;;;;;;;8.13;2.80;;;;;;;-0.67;100.00;99509.06;4370005;32;20043;-74
2022/03/05 08:45:30;;;;;;;4.85;2.67;;;;;;;-0.97;100.00;99468.25;4366435;32;20106;-75
2022/03/05 08:47:56;;;;;;;7.95;3.75;;;;;;;-0.50;100.00;99517.81;4369291;32;20072;-75
2022/03/05 08:50:23;;;;;;;5.22;2.08;;;;;;;-0.52;100.00;99503.94;4355599;32;20061;-75
2022/03/05 08:52:49;;;;;;;3.92;2.70;;;;;;;-0.90;100.00;99458.66;4360429;32;20047;-75
2022/03/05 08:55:16;;;;;;;4.80;2.62;;;;;;;-0.87;100.00;99468.91;4353998;33;20040;-76
2022/03/05 08:57:43;;;;;;;5.37;2.75;;;;;;;-0.99;100.00;99422.63;4354971;32;20094;-75
2022/03/05 09:00:12;;;;;;;7.82;3.37;;;;;;;-0.36;100.00;99508.38;4360136;32;20059;-75
2022/03/05 09:02:39;;;;;;;3.20;1.60;;;;;;;-0.22;100.00;99520.13;4368597;32;20036;-75
2022/03/05 09:05:06;;;;;;;3.40;2.30;;;;;;;-0.37;100.00;99486.41;4369194;32;20470;-75
2022/03/05 09:07:33;;;;;;;6.00;3.47;;;;;;;-0.47;100.00;99475.16;4366070;32;20128;-76
2022/03/05 09:09:59;;;;;;;5.45;2.55;;;;;;;-0.60;100.00;99462.44;4367005;32;20067;-74
2022/03/05 09:12:26;;;;;;;4.20;2.75;;;;;;;-0.50;100.00;99478.13;4367336;32;20496;-75
2022/03/05 09:14:52;;;;;;;8.07;2.30;;;;;;;-0.22;100.00;99520.13;4355240;32;20083;-75
2022/03/05 09:17:19;;;;;;;3.12;2.35;;;;;;;-0.37;100.00;99470.53;4362736;32;20078;-75
2022/03/05 09:19:46;;;;;;;5.35;2.90;;;;;;;0.09;100.00;99532.62;4367920;32;20065;-76
2022/03/05 09:22:18;;;;;;;13.62;3.50;;;;;;;0.26;100.00;99525.47;4370299;32;20873;-75
2022/03/05 09:24:45;;;;;;;4.65;2.50;;;;;;;0.38;100.00;99520.63;4342788;32;20084;-75
2022/03/05 09:27:12;;;;;;;12.45;2.83;;;;;;;0.36;100.00;99516.31;4369040;32;20309;-74
2022/03/05 09:29:39;;;;;;;7.43;2.95;;;;;;;-0.04;100.00;99481.00;4361703;32;20031;-75
2022/03/05 09:32:06;;;;;;;7.72;2.70;;;;;;;0.04;100.00;99482.00;4352090;32;20032;-76
2022/03/05 09:34:32;;;;;;;7.18;3.30;;;;;;;0.36;100.00;99518.13;4353704;33;20078;-75
2022/03/05 09:36:59;;;;;;;3.92;2.67;;;;;;;0.35;100.00;99527.91;4355689;32;20036;-75
2022/03/05 09:39:25;;;;;;;4.55;3.17;;;;;;;0.46;100.00;99531.19;4371477;32;20073;-75
2022/03/05 09:41:53;;;;;;;10.07;2.67;;;;;;;0.52;100.00;99506.66;4368998;32;20109;-76
2022/03/05 09:44:20;;;;;;;4.60;2.85;;;;;;;0.81;100.00;99540.44;4358746;32;20069;-76
2022/03/05 09:46:47;;;;;;;8.50;3.17;;;;;;;0.60;100.00;99541.06;4371867;32;20057;-76
2022/03/05 09:49:14;;;;;;;6.97;2.95;;;;;;;0.51;100.00;99542.06;4370748;32;20167;-75
2022/03/05 09:51:41;;;;;;;4.20;2.10;;;;;;;0.57;100.00;99530.78;4369972;32;20453;-75
2022/03/05 09:54:07;;;;;;;7.15;2.62;;;;;;;0.13;100.00;99516.22;4371104;32;20039;-76
2022/03/05 09:56:34;;;;;;;4.53;2.15;;;;;;;0.09;100.00;99543.22;4372006;32;20061;-75
2022/03/05 09:59:02;;;;;;;7.22;3.45;;;;;;;0.19;100.00;99543.84;4371208;32;20372;-75
2022/03/05 10:01:29;;;;;;;4.72;2.92;;;;;;;0.19;100.00;99549.13;4371275;32;20087;-75
2022/03/05 10:03:56;;;;;;;4.65;2.47;;;;;;;0.23;100.00;99545.16;4369972;32;20179;-75
2022/03/05 10:06:27;;;;;;;3.08;2.50;;;;;;;0.11;100.00;99499.69;4370368;32;20213;-75
2022/03/05 10:08:57;;;;;;;9.35;3.47;;;;;;;0.57;100.00;99536.09;4366606;32;20429;-76
2022/03/05 10:11:36;;;;;;;4.87;2.00;;;;;;;-0.13;100.00;99438.84;4370010;32;20353;-75
2022/03/05 10:14:14;;;;;;;6.03;2.45;;;;;;;0.20;100.00;99555.28;4356801;32;20218;-76
2022/03/05 10:16:41;;;;;;;5.32;2.70;;;;;;;0.18;100.00;99547.50;4371356;32;20080;-76
2022/03/05 10:19:15;;;;;;;6.30;3.45;;;;;;;0.11;100.00;99551.81;4355742;32;20056;-75
2022/03/05 10:21:59;;;;;;;4.50;2.92;;;;;;;0.08;100.00;99546.84;4368844;32;20062;-77
2022/03/05 10:24:37;;;;;;;4.43;2.35;;;;;;;-0.09;100.00;99531.00;4371870;32;20451;-77
2022/03/05 10:27:07;;;;;;;4.65;2.22;;;;;;;-0.32;100.00;99493.00;4357260;32;20053;-77
2022/03/05 10:29:36;;;;;;;4.97;3.55;;;;;;;-0.17;100.00;99538.16;4366049;32;20061;-76
2022/03/05 10:32:05;;;;;;;7.18;3.17;;;;;;;-0.27;100.00;99501.25;4369880;32;20080;-77
2022/03/05 10:34:49;;;;;;;6.22;3.10;;;;;;;-0.19;100.00;99498.63;4372048;32;20047;-76
2022/03/05 10:37:17;;;;;;;34.80;4.28;;;;;;;0.04;100.00;99551.66;4368622;32;20072;-77
2022/03/05 10:39:45;;;;;;;7.37;3.05;;;;;;;-0.20;100.00;99534.00;4364973;32;20031;-81
2022/03/05 10:42:20;;;;;;;5.75;3.28;;;;;;;-0.04;100.00;99549.84;4368489;32;20171;-81
2022/03/05 10:45:05;;;;;;;6.53;3.00;;;;;;;0.08;100.00;99552.16;4367328;32;20098;-80
2022/03/05 10:47:37;;;;;;;8.18;3.17;;;;;;;-0.14;100.00;99501.56;4368548;32;20062;-80
2022/03/05 10:50:24;;;;;;;8.43;2.60;;;;;;;0.03;100.00;99528.00;4370487;32;20043;-80
2022/03/05 10:52:54;;;;;;;3.83;2.28;;;;;;;0.07;100.00;99524.84;4365090;32;20072;-81
2022/03/05 10:55:23;;;;;;;4.80;2.55;;;;;;;0.38;100.00;99547.09;4367014;32;20078;-81
2022/03/05 10:58:06;;;;;;;4.43;2.60;;;;;;;0.16;100.00;99552.13;4372673;32;20043;-88
2022/03/05 11:00:33;;;;;;;12.20;2.35;;;;;;;0.10;100.00;99551.00;4372397;32;20066;-80
2022/03/05 11:03:00;;;;;;;2.75;2.53;;;;;;;0.14;100.00;99546.19;4360493;32;20093;-79
2022/03/05 11:05:27;;;;;;;3.95;2.83;;;;;;;0.19;100.00;99554.44;4349500;32;20841;-83
2022/03/05 11:07:55;;;;;;;4.82;2.90;;;;;;;0.17;100.00;99551.94;4374851;32;20107;-80
2022/03/05 11:10:27;;;;;;;5.75;1.90;;;;;;;0.21;100.00;99557.75;4359952;32;20031;-77
2022/03/05 11:12:56;;;;;;;3.92;2.35;;;;;;;-0.20;100.00;99507.53;4369706;32;20051;-82
2022/03/05 11:15:24;;;;;;;5.62;2.05;;;;;;;0.21;100.00;99551.63;4371490;32;20098;-78
2022/03/05 11:17:51;;;;;;;3.85;2.30;;;;;;;-0.11;100.00;99472.12;4357520;32;20058;-78
2022/03/05 11:20:18;;;;;;;4.60;1.90;;;;;;;0.41;100.00;99546.75;4366663;32;20036;-81
2022/03/05 11:22:49;;;;;;;3.60;1.73;;;;;;;0.50;100.00;99543.09;4367659;32;20143;-81
2022/03/05 11:25:19;;;;;;;1.65;1.58;;;;;;;0.59;100.00;99542.06;4355630;32;20189;-83
2022/03/05 11:27:52;;;;;;;;;;;;;;;0.21;100.00;99483.59;4366770;32;20023;-82
2022/03/05 11:30:26;;;;;;;1.65;1.55;;;;;;;0.56;100.00;99538.91;4355541;32;20279;-83
2022/03/05 11:32:54;;;;;;;3.00;2.12;;;;;;;0.74;100.00;99536.03;4355071;32;20356;-85